sensor_id;sensor_type;location;lat;lon;timestamp;pressure;altitude;pressure_sealevel;temperature;humidity
5455;BME280;2750;49.050;9.250;2022-12-29T00:02:26;98299.75;;;12.53;73.69
5455;BME280;2750;49.050;9.250;2022-12-29T00:07:29;98297.59;;;12.31;75.17
5455;BME280;2750;49.050;9.250;2022-12-29T00:12:30;98284.13;;;12.38;74.87
5455;BME280;2750;49.050;9.250;2022-12-29T00:17:51;98278.44;;;12.60;74.05
5455;BME280;2750;49.050;9.250;2022-12-29T00:22:54;98269.16;;;12.56;73.88
5455;BME280;2750;49.050;9.250;2022-12-29T00:28:13;98263.81;;;12.58;73.70
5455;BME280;2750;49.050;9.250;2022-12-29T00:33:33;98259.69;;;12.41;74.98
5455;BME280;2750;49.050;9.250;2022-12-29T00:38:57;98261.72;;;12.50;74.55
5455;BME280;2750;49.050;9.250;2022-12-29T00:44:17;98263.13;;;12.41;74.91
5455;BME280;2750;49.050;9.250;2022-12-29T00:49:19;98260.44;;;12.70;73.88
5455;BME280;2750;49.050;9.250;2022-12-29T00:54:35;98257.75;;;12.71;73.62
5455;BME280;2750;49.050;9.250;2022-12-29T00:59:38;98261.06;;;12.87;74.13
5455;BME280;2750;49.050;9.250;2022-12-29T01:04:40;98267.53;;;12.94;73.20
5455;BME280;2750;49.050;9.250;2022-12-29T01:09:43;98271.84;;;12.81;73.98
5455;BME280;2750;49.050;9.250;2022-12-29T01:15:02;98281.69;;;12.90;73.51
5455;BME280;2750;49.050;9.250;2022-12-29T01:20:05;98292.75;;;12.94;74.14
5455;BME280;2750;49.050;9.250;2022-12-29T01:25:08;98295.78;;;12.74;74.15
5455;BME280;2750;49.050;9.250;2022-12-29T01:30:10;98298.09;;;12.78;74.23
5455;BME280;2750;49.050;9.250;2022-12-29T01:35:12;98312.28;;;13.28;73.92
5455;BME280;2750;49.050;9.250;2022-12-29T01:40:15;98304.03;;;13.34;75.28
5455;BME280;2750;49.050;9.250;2022-12-29T01:45:17;98300.63;;;13.46;74.51
5455;BME280;2750;49.050;9.250;2022-12-29T01:50:23;98304.41;;;13.55;73.34
5455;BME280;2750;49.050;9.250;2022-12-29T01:55:32;98289.81;;;13.52;75.28
5455;BME280;2750;49.050;9.250;2022-12-29T02:00:36;98289.22;;;13.22;74.82
5455;BME280;2750;49.050;9.250;2022-12-29T02:05:42;98284.72;;;13.63;74.00
5455;BME280;2750;49.050;9.250;2022-12-29T02:10:48;98279.28;;;13.54;74.41
5455;BME280;2750;49.050;9.250;2022-12-29T02:15:58;98273.53;;;13.61;74.22
5455;BME280;2750;49.050;9.250;2022-12-29T02:21:32;98266.66;;;13.48;74.57
5455;BME280;2750;49.050;9.250;2022-12-29T02:27:12;98262.19;;;13.62;73.49
5455;BME280;2750;49.050;9.250;2022-12-29T02:32:26;98263.44;;;13.69;73.94
5455;BME280;2750;49.050;9.250;2022-12-29T02:37:34;98257.81;;;13.63;72.94
5455;BME280;2750;49.050;9.250;2022-12-29T02:42:46;98252.69;;;13.49;73.42
5455;BME280;2750;49.050;9.250;2022-12-29T02:47:55;98247.56;;;13.22;74.45
5455;BME280;2750;49.050;9.250;2022-12-29T02:52:59;98246.13;;;13.43;73.45
5455;BME280;2750;49.050;9.250;2022-12-29T02:58:16;98246.22;;;13.29;73.96
5455;BME280;2750;49.050;9.250;2022-12-29T03:03:29;98235.69;;;13.43;73.78
5455;BME280;2750;49.050;9.250;2022-12-29T03:08:40;98242.97;;;13.38;73.45
5455;BME280;2750;49.050;9.250;2022-12-29T03:13:49;98230.53;;;13.16;73.96
5455;BME280;2750;49.050;9.250;2022-12-29T03:19:15;98233.63;;;13.48;73.69
5455;BME280;2750;49.050;9.250;2022-12-29T03:24:20;98216.38;;;13.46;73.19
5455;BME280;2750;49.050;9.250;2022-12-29T03:29:23;98212.75;;;13.48;72.70
5455;BME280;2750;49.050;9.250;2022-12-29T03:34:28;98203.06;;;13.63;72.38
5455;BME280;2750;49.050;9.250;2022-12-29T03:39:31;98212.97;;;13.70;73.10
5455;BME280;2750;49.050;9.250;2022-12-29T03:44:34;98213.41;;;13.64;75.33
5455;BME280;2750;49.050;9.250;2022-12-29T03:49:37;98204.75;;;13.64;74.87
5455;BME280;2750;49.050;9.250;2022-12-29T03:54:39;98205.09;;;13.96;74.29
5455;BME280;2750;49.050;9.250;2022-12-29T03:59:40;98197.13;;;13.48;75.34
5455;BME280;2750;49.050;9.250;2022-12-29T04:04:43;98204.72;;;13.89;74.31
5455;BME280;2750;49.050;9.250;2022-12-29T04:09:44;98202.34;;;14.35;71.39
5455;BME280;2750;49.050;9.250;2022-12-29T04:14:46;98207.34;;;14.38;71.50
5455;BME280;2750;49.050;9.250;2022-12-29T04:19:49;98216.44;;;14.20;71.60
5455;BME280;2750;49.050;9.250;2022-12-29T04:24:50;98197.72;;;14.26;70.85
5455;BME280;2750;49.050;9.250;2022-12-29T04:29:51;98207.00;;;14.06;71.71
5455;BME280;2750;49.050;9.250;2022-12-29T04:34:54;98187.38;;;13.88;71.95
5455;BME280;2750;49.050;9.250;2022-12-29T04:39:56;98166.94;;;13.95;71.18
5455;BME280;2750;49.050;9.250;2022-12-29T04:44:57;98157.16;;;13.73;71.70
5455;BME280;2750;49.050;9.250;2022-12-29T04:50:00;98167.72;;;13.71;72.33
5455;BME280;2750;49.050;9.250;2022-12-29T04:55:02;98165.28;;;13.94;72.28
5455;BME280;2750;49.050;9.250;2022-12-29T05:00:05;98157.97;;;13.99;72.91
5455;BME280;2750;49.050;9.250;2022-12-29T05:05:09;98159.41;;;14.03;71.98
5455;BME280;2750;49.050;9.250;2022-12-29T05:10:11;98153.81;;;14.20;71.89
5455;BME280;2750;49.050;9.250;2022-12-29T05:15:12;98148.75;;;14.06;71.92
5455;BME280;2750;49.050;9.250;2022-12-29T05:20:15;98151.06;;;13.98;72.45
5455;BME280;2750;49.050;9.250;2022-12-29T05:25:17;98160.66;;;14.10;72.64
5455;BME280;2750;49.050;9.250;2022-12-29T05:30:18;98171.94;;;13.98;72.93
5455;BME280;2750;49.050;9.250;2022-12-29T05:35:21;98163.47;;;14.43;72.37
5455;BME280;2750;49.050;9.250;2022-12-29T05:40:22;98182.06;;;14.26;72.96
5455;BME280;2750;49.050;9.250;2022-12-29T05:45:24;98182.44;;;14.09;73.04
5455;BME280;2750;49.050;9.250;2022-12-29T05:50:27;98186.97;;;14.30;73.87
5455;BME280;2750;49.050;9.250;2022-12-29T05:55:29;98164.78;;;14.25;73.67
5455;BME280;2750;49.050;9.250;2022-12-29T06:00:31;98169.16;;;14.24;73.54
5455;BME280;2750;49.050;9.250;2022-12-29T06:05:34;98155.72;;;14.18;73.99
5455;BME280;2750;49.050;9.250;2022-12-29T06:10:35;98175.38;;;14.47;73.23
5455;BME280;2750;49.050;9.250;2022-12-29T06:15:37;98172.53;;;14.14;74.07
5455;BME280;2750;49.050;9.250;2022-12-29T06:20:40;98184.75;;;14.01;74.73
5455;BME280;2750;49.050;9.250;2022-12-29T06:25:42;98176.09;;;14.00;74.77
5455;BME280;2750;49.050;9.250;2022-12-29T06:30:43;98179.31;;;14.16;75.12
5455;BME280;2750;49.050;9.250;2022-12-29T06:35:46;98165.19;;;14.19;74.48
5455;BME280;2750;49.050;9.250;2022-12-29T06:40:48;98166.41;;;14.26;74.90
5455;BME280;2750;49.050;9.250;2022-12-29T06:45:49;98162.97;;;14.02;75.03
5455;BME280;2750;49.050;9.250;2022-12-29T06:50:52;98169.84;;;14.03;75.10
5455;BME280;2750;49.050;9.250;2022-12-29T06:55:53;98165.31;;;14.17;74.93
5455;BME280;2750;49.050;9.250;2022-12-29T07:00:56;98161.13;;;14.15;74.55
5455;BME280;2750;49.050;9.250;2022-12-29T07:05:59;98164.25;;;14.20;75.45
5455;BME280;2750;49.050;9.250;2022-12-29T07:11:01;98152.31;;;14.05;74.61
5455;BME280;2750;49.050;9.250;2022-12-29T07:16:05;98146.44;;;14.14;74.89
5455;BME280;2750;49.050;9.250;2022-12-29T07:21:09;98154.47;;;14.11;74.63
5455;BME280;2750;49.050;9.250;2022-12-29T07:26:13;98166.94;;;13.95;74.55
5455;BME280;2750;49.050;9.250;2022-12-29T07:31:19;98168.41;;;13.99;74.93
5455;BME280;2750;49.050;9.250;2022-12-29T07:36:22;98172.28;;;14.29;73.88
5455;BME280;2750;49.050;9.250;2022-12-29T07:41:24;98174.00;;;14.18;73.83
5455;BME280;2750;49.050;9.250;2022-12-29T07:46:25;98170.94;;;14.37;73.42
5455;BME280;2750;49.050;9.250;2022-12-29T07:51:28;98173.84;;;13.83;74.31
5455;BME280;2750;49.050;9.250;2022-12-29T07:56:29;98188.22;;;14.01;73.54
5455;BME280;2750;49.050;9.250;2022-12-29T08:01:31;98195.66;;;14.31;73.67
5455;BME280;2750;49.050;9.250;2022-12-29T08:06:34;98193.19;;;14.17;73.92
5455;BME280;2750;49.050;9.250;2022-12-29T08:11:35;98193.97;;;14.30;72.51
5455;BME280;2750;49.050;9.250;2022-12-29T08:16:37;98197.81;;;14.73;71.86
5455;BME280;2750;49.050;9.250;2022-12-29T08:21:40;98198.53;;;14.75;71.66
5455;BME280;2750;49.050;9.250;2022-12-29T08:26:41;98204.47;;;14.77;71.60
5455;BME280;2750;49.050;9.250;2022-12-29T08:31:43;98204.25;;;14.80;71.86
5455;BME280;2750;49.050;9.250;2022-12-29T08:36:46;98205.22;;;14.56;72.36
5455;BME280;2750;49.050;9.250;2022-12-29T08:41:47;98200.38;;;14.62;72.44
5455;BME280;2750;49.050;9.250;2022-12-29T08:46:49;98215.91;;;14.40;72.08
5455;BME280;2750;49.050;9.250;2022-12-29T08:51:52;98213.38;;;14.51;72.67
5455;BME280;2750;49.050;9.250;2022-12-29T08:56:53;98227.75;;;14.80;71.73
5455;BME280;2750;49.050;9.250;2022-12-29T09:01:55;98229.03;;;14.99;70.78
5455;BME280;2750;49.050;9.250;2022-12-29T09:06:57;98229.34;;;14.83;71.01
5455;BME280;2750;49.050;9.250;2022-12-29T09:11:59;98243.09;;;15.09;70.54
5455;BME280;2750;49.050;9.250;2022-12-29T09:17:00;98240.88;;;15.50;69.81
5455;BME280;2750;49.050;9.250;2022-12-29T09:22:21;98247.47;;;15.32;69.98
5455;BME280;2750;49.050;9.250;2022-12-29T09:27:22;98242.56;;;15.51;69.38
5455;BME280;2750;49.050;9.250;2022-12-29T09:32:24;98242.84;;;15.36;69.91
5455;BME280;2750;49.050;9.250;2022-12-29T09:37:27;98241.22;;;15.22;70.81
5455;BME280;2750;49.050;9.250;2022-12-29T09:42:34;98240.41;;;15.21;69.89
5455;BME280;2750;49.050;9.250;2022-12-29T09:47:38;98253.28;;;15.36;70.11
5455;BME280;2750;49.050;9.250;2022-12-29T09:52:46;98236.22;;;15.19;70.10
5455;BME280;2750;49.050;9.250;2022-12-29T09:57:53;98232.97;;;15.39;70.79
5455;BME280;2750;49.050;9.250;2022-12-29T10:02:59;98237.97;;;15.42;69.90
5455;BME280;2750;49.050;9.250;2022-12-29T10:08:15;98244.72;;;15.33;70.47
5455;BME280;2750;49.050;9.250;2022-12-29T10:13:27;98239.19;;;15.49;70.39
5455;BME280;2750;49.050;9.250;2022-12-29T10:18:57;98234.25;;;15.79;69.53
5455;BME280;2750;49.050;9.250;2022-12-29T10:24:07;98247.84;;;15.96;69.84
5455;BME280;2750;49.050;9.250;2022-12-29T10:29:15;98247.59;;;15.99;69.66
5455;BME280;2750;49.050;9.250;2022-12-29T10:34:21;98237.38;;;16.40;68.88
5455;BME280;2750;49.050;9.250;2022-12-29T10:39:30;98255.09;;;16.48;68.13
5455;BME280;2750;49.050;9.250;2022-12-29T10:44:34;98245.81;;;16.33;69.15
5455;BME280;2750;49.050;9.250;2022-12-29T10:49:39;98240.66;;;16.64;68.95
5455;BME280;2750;49.050;9.250;2022-12-29T10:54:46;98240.84;;;16.84;68.60
5455;BME280;2750;49.050;9.250;2022-12-29T10:59:50;98238.50;;;15.58;70.24
5455;BME280;2750;49.050;9.250;2022-12-29T11:04:55;98240.09;;;15.83;70.98
5455;BME280;2750;49.050;9.250;2022-12-29T11:10:18;98228.22;;;15.90;70.56
5455;BME280;2750;49.050;9.250;2022-12-29T11:15:20;98243.53;;;16.61;69.02
5455;BME280;2750;49.050;9.250;2022-12-29T11:20:29;98229.38;;;16.96;69.18
5455;BME280;2750;49.050;9.250;2022-12-29T11:25:32;98250.09;;;16.34;71.03
5455;BME280;2750;49.050;9.250;2022-12-29T11:30:34;98258.91;;;15.99;71.80
5455;BME280;2750;49.050;9.250;2022-12-29T11:35:40;98247.59;;;15.42;70.73
5455;BME280;2750;49.050;9.250;2022-12-29T11:40:43;98245.56;;;15.45;71.03
5455;BME280;2750;49.050;9.250;2022-12-29T11:45:46;98248.19;;;15.45;70.71
5455;BME280;2750;49.050;9.250;2022-12-29T11:50:50;98247.47;;;15.67;70.58
5455;BME280;2750;49.050;9.250;2022-12-29T11:55:56;98254.84;;;15.95;69.55
5455;BME280;2750;49.050;9.250;2022-12-29T12:01:01;98234.50;;;15.76;70.06
5455;BME280;2750;49.050;9.250;2022-12-29T12:06:07;98239.63;;;16.11;69.74
5455;BME280;2750;49.050;9.250;2022-12-29T12:11:16;98234.84;;;16.39;69.56
5455;BME280;2750;49.050;9.250;2022-12-29T12:16:21;98241.84;;;15.71;69.87
5455;BME280;2750;49.050;9.250;2022-12-29T12:21:31;98242.44;;;15.64;70.20
5455;BME280;2750;49.050;9.250;2022-12-29T12:26:52;98234.63;;;15.75;70.95
5455;BME280;2750;49.050;9.250;2022-12-29T12:31:57;98234.41;;;16.00;69.49
5455;BME280;2750;49.050;9.250;2022-12-29T12:37:23;98218.94;;;16.85;68.73
5455;BME280;2750;49.050;9.250;2022-12-29T12:42:41;98222.69;;;16.49;68.72
5455;BME280;2750;49.050;9.250;2022-12-29T12:47:59;98202.81;;;16.57;68.82
5455;BME280;2750;49.050;9.250;2022-12-29T12:53:16;98217.91;;;16.54;69.22
5455;BME280;2750;49.050;9.250;2022-12-29T12:58:28;98222.38;;;16.31;70.33
5455;BME280;2750;49.050;9.250;2022-12-29T13:03:44;98215.34;;;15.87;71.00
5455;BME280;2750;49.050;9.250;2022-12-29T13:08:59;98224.03;;;15.76;71.71
5455;BME280;2750;49.050;9.250;2022-12-29T13:14:21;98217.84;;;15.66;71.53
5455;BME280;2750;49.050;9.250;2022-12-29T13:19:30;98223.09;;;15.31;73.31
5455;BME280;2750;49.050;9.250;2022-12-29T13:24:44;98222.75;;;15.36;73.63
5455;BME280;2750;49.050;9.250;2022-12-29T13:29:58;98212.03;;;15.96;72.57
5455;BME280;2750;49.050;9.250;2022-12-29T13:35:11;98202.28;;;15.98;72.29
5455;BME280;2750;49.050;9.250;2022-12-29T13:40:19;98203.31;;;16.18;72.44
5455;BME280;2750;49.050;9.250;2022-12-29T13:45:25;98202.28;;;16.09;72.35
5455;BME280;2750;49.050;9.250;2022-12-29T13:50:33;98203.09;;;16.32;71.72
5455;BME280;2750;49.050;9.250;2022-12-29T13:55:40;98202.94;;;16.45;71.38
5455;BME280;2750;49.050;9.250;2022-12-29T14:00:51;98200.47;;;16.10;71.44
5455;BME280;2750;49.050;9.250;2022-12-29T14:06:10;98212.34;;;16.47;71.59
5455;BME280;2750;49.050;9.250;2022-12-29T14:11:15;98212.59;;;16.44;71.17
5455;BME280;2750;49.050;9.250;2022-12-29T14:16:32;98215.53;;;16.73;70.91
5455;BME280;2750;49.050;9.250;2022-12-29T14:21:35;98233.41;;;17.00;70.96
5455;BME280;2750;49.050;9.250;2022-12-29T14:26:37;98249.25;;;15.08;78.09
5455;BME280;2750;49.050;9.250;2022-12-29T14:31:40;98251.84;;;14.11;83.31
5455;BME280;2750;49.050;9.250;2022-12-29T14:36:51;98247.06;;;13.80;84.95
5455;BME280;2750;49.050;9.250;2022-12-29T14:41:59;98257.63;;;13.78;85.29
5455;BME280;2750;49.050;9.250;2022-12-29T14:47:05;98242.91;;;14.03;84.60
5455;BME280;2750;49.050;9.250;2022-12-29T14:52:15;98249.22;;;14.11;83.27
5455;BME280;2750;49.050;9.250;2022-12-29T14:57:22;98254.16;;;13.91;84.49
5455;BME280;2750;49.050;9.250;2022-12-29T15:02:33;98245.59;;;14.01;83.88
5455;BME280;2750;49.050;9.250;2022-12-29T15:07:37;98230.75;;;14.14;83.77
5455;BME280;2750;49.050;9.250;2022-12-29T15:12:42;98251.59;;;14.52;82.38
5455;BME280;2750;49.050;9.250;2022-12-29T15:17:48;98260.63;;;13.72;85.42
5455;BME280;2750;49.050;9.250;2022-12-29T15:22:54;98296.66;;;12.46;90.50
5455;BME280;2750;49.050;9.250;2022-12-29T15:27:59;98311.63;;;12.00;94.08
5455;BME280;2750;49.050;9.250;2022-12-29T15:33:17;98316.81;;;11.72;99.12
5455;BME280;2750;49.050;9.250;2022-12-29T15:38:22;98316.75;;;11.28;100.00
5455;BME280;2750;49.050;9.250;2022-12-29T15:43:42;98321.72;;;11.17;100.00
5455;BME280;2750;49.050;9.250;2022-12-29T15:48:48;98323.22;;;11.21;100.00
5455;BME280;2750;49.050;9.250;2022-12-29T15:53:50;98332.28;;;11.14;100.00
5455;BME280;2750;49.050;9.250;2022-12-29T15:58:53;98336.09;;;11.38;100.00
5455;BME280;2750;49.050;9.250;2022-12-29T16:03:56;98338.28;;;11.60;100.00
5455;BME280;2750;49.050;9.250;2022-12-29T16:09:01;98354.19;;;11.24;100.00
5455;BME280;2750;49.050;9.250;2022-12-29T16:14:07;98343.00;;;11.53;100.00
5455;BME280;2750;49.050;9.250;2022-12-29T16:19:14;98352.75;;;11.79;99.50
5455;BME280;2750;49.050;9.250;2022-12-29T16:24:19;98369.50;;;12.04;99.16
5455;BME280;2750;49.050;9.250;2022-12-29T16:29:22;98376.03;;;12.11;98.75
5455;BME280;2750;49.050;9.250;2022-12-29T16:34:29;98372.13;;;12.18;98.14
5455;BME280;2750;49.050;9.250;2022-12-29T16:39:33;98373.25;;;12.28;97.39
5455;BME280;2750;49.050;9.250;2022-12-29T16:44:35;98383.72;;;12.12;97.97
5455;BME280;2750;49.050;9.250;2022-12-29T16:49:40;98375.47;;;12.20;97.59
5455;BME280;2750;49.050;9.250;2022-12-29T16:54:48;98377.13;;;12.07;98.34
5455;BME280;2750;49.050;9.250;2022-12-29T16:59:53;98387.47;;;11.78;98.60
5455;BME280;2750;49.050;9.250;2022-12-29T17:04:57;98388.59;;;11.88;98.25
5455;BME280;2750;49.050;9.250;2022-12-29T17:09:59;98400.16;;;11.98;96.96
5455;BME280;2750;49.050;9.250;2022-12-29T17:15:02;98389.03;;;12.25;96.26
5455;BME280;2750;49.050;9.250;2022-12-29T17:20:16;98406.06;;;12.01;96.01
5455;BME280;2750;49.050;9.250;2022-12-29T17:25:20;98396.78;;;11.96;96.27
5455;BME280;2750;49.050;9.250;2022-12-29T17:30:23;98391.91;;;11.76;96.19
5455;BME280;2750;49.050;9.250;2022-12-29T17:35:27;98394.19;;;11.51;96.09
5455;BME280;2750;49.050;9.250;2022-12-29T17:40:31;98392.06;;;11.73;95.62
5455;BME280;2750;49.050;9.250;2022-12-29T17:45:33;98397.19;;;11.59;96.46
5455;BME280;2750;49.050;9.250;2022-12-29T17:50:36;98410.38;;;11.56;95.87
5455;BME280;2750;49.050;9.250;2022-12-29T17:55:38;98401.94;;;11.82;95.12
5455;BME280;2750;49.050;9.250;2022-12-29T18:00:40;98405.91;;;11.58;96.09
5455;BME280;2750;49.050;9.250;2022-12-29T18:05:43;98415.09;;;11.34;97.30
5455;BME280;2750;49.050;9.250;2022-12-29T18:10:45;98408.28;;;11.47;97.04
5455;BME280;2750;49.050;9.250;2022-12-29T18:15:47;98418.84;;;11.44;96.89
5455;BME280;2750;49.050;9.250;2022-12-29T18:20:52;98424.72;;;11.32;98.09
5455;BME280;2750;49.050;9.250;2022-12-29T18:25:57;98425.75;;;11.14;98.38
5455;BME280;2750;49.050;9.250;2022-12-29T18:31:00;98428.50;;;11.42;96.93
5455;BME280;2750;49.050;9.250;2022-12-29T18:36:04;98423.84;;;11.63;95.73
5455;BME280;2750;49.050;9.250;2022-12-29T18:41:14;98410.91;;;11.31;96.78
5455;BME280;2750;49.050;9.250;2022-12-29T18:46:16;98417.28;;;11.26;97.51
5455;BME280;2750;49.050;9.250;2022-12-29T18:51:21;98420.13;;;11.37;97.26
5455;BME280;2750;49.050;9.250;2022-12-29T18:56:23;98418.25;;;11.39;97.34
5455;BME280;2750;49.050;9.250;2022-12-29T19:01:25;98412.41;;;11.35;96.53
5455;BME280;2750;49.050;9.250;2022-12-29T19:06:28;98417.69;;;11.34;96.91
5455;BME280;2750;49.050;9.250;2022-12-29T19:11:30;98416.19;;;11.14;97.45
5455;BME280;2750;49.050;9.250;2022-12-29T19:16:31;98421.22;;;11.33;97.54
5455;BME280;2750;49.050;9.250;2022-12-29T19:21:34;98408.84;;;11.07;97.98
5455;BME280;2750;49.050;9.250;2022-12-29T19:26:37;98423.97;;;10.98;98.93
5455;BME280;2750;49.050;9.250;2022-12-29T19:31:39;98412.94;;;11.26;97.48
5455;BME280;2750;49.050;9.250;2022-12-29T19:36:44;98422.97;;;11.32;96.66
5455;BME280;2750;49.050;9.250;2022-12-29T19:41:45;98416.94;;;11.32;96.82
5455;BME280;2750;49.050;9.250;2022-12-29T19:46:47;98417.88;;;10.99;97.80
5455;BME280;2750;49.050;9.250;2022-12-29T19:51:50;98410.31;;;10.79;98.71
5455;BME280;2750;49.050;9.250;2022-12-29T19:56:52;98422.06;;;11.02;97.30
5455;BME280;2750;49.050;9.250;2022-12-29T20:01:53;98426.66;;;11.13;96.31
5455;BME280;2750;49.050;9.250;2022-12-29T20:06:57;98428.00;;;10.88;97.66
5455;BME280;2750;49.050;9.250;2022-12-29T20:11:59;98424.34;;;10.60;99.19
5455;BME280;2750;49.050;9.250;2022-12-29T20:17:00;98432.91;;;10.77;97.75
5455;BME280;2750;49.050;9.250;2022-12-29T20:22:07;98437.75;;;10.68;99.18
5455;BME280;2750;49.050;9.250;2022-12-29T20:27:12;98424.19;;;10.78;98.58
5455;BME280;2750;49.050;9.250;2022-12-29T20:32:18;98444.31;;;10.90;99.14
5455;BME280;2750;49.050;9.250;2022-12-29T20:37:24;98438.44;;;10.87;98.49
5455;BME280;2750;49.050;9.250;2022-12-29T20:42:26;98444.75;;;10.66;98.92
5455;BME280;2750;49.050;9.250;2022-12-29T20:47:27;98451.13;;;10.60;99.69
5455;BME280;2750;49.050;9.250;2022-12-29T20:52:30;98471.66;;;10.65;99.41
5455;BME280;2750;49.050;9.250;2022-12-29T20:57:32;98468.81;;;10.19;99.92
5455;BME280;2750;49.050;9.250;2022-12-29T21:02:33;98471.16;;;10.41;100.00
5455;BME280;2750;49.050;9.250;2022-12-29T21:07:36;98459.59;;;10.46;98.85
5455;BME280;2750;49.050;9.250;2022-12-29T21:12:41;98473.97;;;10.36;100.00
5455;BME280;2750;49.050;9.250;2022-12-29T21:17:43;98459.97;;;10.56;98.37
5455;BME280;2750;49.050;9.250;2022-12-29T21:22:47;98448.34;;;10.30;99.08
5455;BME280;2750;49.050;9.250;2022-12-29T21:27:48;98471.09;;;10.58;97.50
5455;BME280;2750;49.050;9.250;2022-12-29T21:32:50;98481.78;;;10.69;96.15
5455;BME280;2750;49.050;9.250;2022-12-29T21:37:53;98484.78;;;10.62;96.76
5455;BME280;2750;49.050;9.250;2022-12-29T21:42:54;98448.47;;;10.77;95.07
5455;BME280;2750;49.050;9.250;2022-12-29T21:47:58;98494.94;;;10.82;94.61
5455;BME280;2750;49.050;9.250;2022-12-29T21:53:19;98491.13;;;10.39;94.96
5455;BME280;2750;49.050;9.250;2022-12-29T21:58:20;98501.34;;;10.92;93.55
5455;BME280;2750;49.050;9.250;2022-12-29T22:03:39;98504.00;;;10.90;92.86
5455;BME280;2750;49.050;9.250;2022-12-29T22:09:00;98504.56;;;11.13;91.74
5455;BME280;2750;49.050;9.250;2022-12-29T22:14:20;98496.06;;;10.93;91.92
5455;BME280;2750;49.050;9.250;2022-12-29T22:19:21;98538.66;;;11.07;91.80
5455;BME280;2750;49.050;9.250;2022-12-29T22:24:24;98545.56;;;11.55;89.52
5455;BME280;2750;49.050;9.250;2022-12-29T22:29:26;98543.78;;;11.24;90.73
5455;BME280;2750;49.050;9.250;2022-12-29T22:34:27;98551.06;;;10.84;91.47
5455;BME280;2750;49.050;9.250;2022-12-29T22:39:30;98569.69;;;10.75;92.55
5455;BME280;2750;49.050;9.250;2022-12-29T22:44:32;98573.13;;;11.09;90.99
5455;BME280;2750;49.050;9.250;2022-12-29T22:49:33;98579.19;;;11.09;90.79
5455;BME280;2750;49.050;9.250;2022-12-29T22:54:36;98589.78;;;11.22;90.64
5455;BME280;2750;49.050;9.250;2022-12-29T22:59:37;98609.69;;;10.88;91.06
5455;BME280;2750;49.050;9.250;2022-12-29T23:04:39;98628.72;;;11.22;90.29
5455;BME280;2750;49.050;9.250;2022-12-29T23:09:42;98615.16;;;10.82;90.37
5455;BME280;2750;49.050;9.250;2022-12-29T23:14:43;98615.19;;;11.32;89.81
5455;BME280;2750;49.050;9.250;2022-12-29T23:19:45;98621.91;;;11.19;89.70
5455;BME280;2750;49.050;9.250;2022-12-29T23:24:48;98639.97;;;11.88;87.82
5455;BME280;2750;49.050;9.250;2022-12-29T23:29:49;98639.63;;;11.61;87.63
5455;BME280;2750;49.050;9.250;2022-12-29T23:34:51;98639.72;;;11.27;89.20
5455;BME280;2750;49.050;9.250;2022-12-29T23:39:53;98649.81;;;11.16;88.28
5455;BME280;2750;49.050;9.250;2022-12-29T23:44:55;98649.06;;;11.14;88.85
5455;BME280;2750;49.050;9.250;2022-12-29T23:49:57;98647.53;;;11.10;89.25
5455;BME280;2750;49.050;9.250;2022-12-29T23:55:00;98637.31;;;10.89;89.15
